Monday, June 24, 2019, 8:25 PM EDT
Back to Local

K1V4, St Johnsbury Fairbanks

Location: Saint Johnsbury, VT, United States Lat: 44.417
Local Time: 8:25 PM EDT ( 0:25 GMT) Lon: -72.017
Time Zone: US/Eastern Elev: 695 ft

Show me the last for .
Show Coded

Time T Td Feel RH Dir Speed Gust Alt SLP Vis Weather Sky Remarks
2019-06-24 19:54 73 46 - 38 - - - 29.83 29.81 0 6-hr Min Temp (8pm): 73.0°F
6-hr Max Temp (8pm): 81.0°F
2019-06-24 18:54 77 41 - 27 - - - 29.82 29.80 0 None
2019-06-24 17:54 79 40 - 24 - - - 29.82 29.79 0 None
2019-06-24 16:54 80 39 - 23 - - - 29.82 29.80 0 None
2019-06-24 15:54 80 40 - 23 - - - 29.82 29.80 0 None
2019-06-24 14:54 79 37 - 22 - - - 29.83 29.80 0 None
2019-06-24 13:54 77 41 - 27 - - - 29.83 29.81 0 6-hr Min Temp (2pm): 57.9°F
6-hr Max Temp (2pm): 79.0°F
2019-06-24 12:54 77 42 - 28 - - - 29.84 29.82 0 None
2019-06-24 11:54 74 40 - 29 - - - 29.85 29.83 0 None
2019-06-24 10:54 73 39 - 29 - - - 29.86 29.84 0 None
2019-06-24 09:54 69 45 - 41 - - - 29.86 29.84 0 None
2019-06-24 08:54 63 50 - 62 - - - 29.87 29.85 0 None
2019-06-24 07:54 58 48 - 69 - - - 29.87 29.84 0 6-hr Min Temp (8am): 48.0°F
6-hr Max Temp (8am): 57.9°F
2019-06-24 06:54 51 49 - 92 - - - 29.87 29.84 0 None
2019-06-24 05:54 49 47 - 92 - - - 29.86 29.84 0 None
2019-06-24 04:54 49 48 - 96 - - - 29.85 29.83 0 None
2019-06-24 03:54 50 49 - 96 - - - 29.83 29.80 0 None
2019-06-24 02:54 52 49 - 89 - - - 29.81 29.79 0 None
2019-06-24 01:54 54 49 - 83 - - - 29.81 29.79 0 6-hr Min Temp (2am): 54.0°F
6-hr Max Temp (2am): 73.0°F
2019-06-24 00:54 56 50 - 80 - - - 29.80 29.78 0 24-hr Min Temp (1am): 48.0°F
24-hr Max Temp (1am): 79.0°F
2019-06-23 23:54 58 50 - 74 - - - 29.80 29.77 0 None
2019-06-23 22:54 60 51 - 72 - - - 29.79 29.77 0 None
2019-06-23 21:54 65 50 - 58 - - - 29.79 29.76 0 None
2019-06-23 20:54 69 47 - 45 - - - 29.77 29.74 0 None

Support USWX by starting your Amazon purchase here.